createdAt,value
2022-10-17T00:00:42.648Z,98391.22
2022-10-17T00:03:09.772Z,98378.03
2022-10-17T00:05:41.976Z,98377.72
2022-10-17T00:08:09.796Z,98389.53
2022-10-17T00:10:37.134Z,98387.56
2022-10-17T00:13:04.603Z,98390.25
2022-10-17T00:15:31.455Z,98397.50
2022-10-17T00:17:58.819Z,98391.66
2022-10-17T00:20:26.163Z,98404.78
2022-10-17T00:22:53.453Z,98358.97
2022-10-17T00:25:20.330Z,98398.19
2022-10-17T00:27:47.456Z,98402.22
2022-10-17T00:30:16.824Z,98350.22
2022-10-17T00:32:43.699Z,98392.03
2022-10-17T00:35:10.912Z,98389.91
2022-10-17T00:37:37.838Z,98390.66
2022-10-17T00:40:06.615Z,98412.88
2022-10-17T00:42:33.669Z,98401.16
2022-10-17T00:45:05.741Z,98393.31
2022-10-17T00:47:33.933Z,98367.06
2022-10-17T00:52:33.353Z,98399.69
2022-10-17T00:55:12.224Z,98398.66
2022-10-17T00:57:39.836Z,98412.44
2022-10-17T01:00:09.943Z,98407.31
2022-10-17T01:02:37.201Z,98419.59
2022-10-17T01:05:04.691Z,98409.16
2022-10-17T01:07:37.128Z,98416.91
2022-10-17T01:10:07.775Z,98409.22
2022-10-17T01:13:07.277Z,98410.69
2022-10-17T01:15:40.724Z,98416.00
2022-10-17T01:18:33.779Z,98408.91
2022-10-17T01:21:24.165Z,98397.81
2022-10-17T01:24:30.094Z,98409.66
2022-10-17T01:27:15.348Z,98404.59
2022-10-17T01:30:22.068Z,98405.34
2022-10-17T01:33:27.971Z,98405.78
2022-10-17T01:36:01.742Z,98406.81
2022-10-17T01:38:44.435Z,98417.97
2022-10-17T01:41:41.170Z,98412.94
2022-10-17T01:44:18.105Z,98397.56
2022-10-17T01:46:50.365Z,98410.41
2022-10-17T01:49:22.651Z,98412.25
2022-10-17T01:51:55.391Z,98393.34
2022-10-17T01:54:37.387Z,98388.03
2022-10-17T01:57:08.538Z,98407.72
2022-10-17T01:59:42.638Z,98410.59
2022-10-17T02:02:11.310Z,98406.47
2022-10-17T02:04:38.835Z,98414.06
2022-10-17T02:07:10.976Z,98406.38
2022-10-17T02:09:38.734Z,98417.41
2022-10-17T02:12:39.757Z,98426.91
2022-10-17T02:15:19.897Z,98428.53
2022-10-17T02:18:07.350Z,98414.88
2022-10-17T02:20:49.596Z,98429.41
2022-10-17T02:23:16.424Z,98422.59
2022-10-17T02:25:50.363Z,98412.41
2022-10-17T02:28:23.239Z,98426.03
2022-10-17T02:31:00.868Z,98410.69
2022-10-17T02:33:53.341Z,98429.75
2022-10-17T02:36:29.486Z,98422.09
2022-10-17T02:38:58.086Z,98425.53
2022-10-17T02:41:26.136Z,98410.06
2022-10-17T02:43:55.656Z,98425.25
2022-10-17T02:46:28.447Z,98433.63
2022-10-17T02:49:01.056Z,98423.16
2022-10-17T02:51:45.324Z,98433.25
2022-10-17T02:54:31.969Z,98451.97
2022-10-17T02:57:06.469Z,98443.19
2022-10-17T02:59:36.350Z,98409.91
2022-10-17T03:02:05.744Z,98434.63
2022-10-17T03:04:34.253Z,98434.66
2022-10-17T03:07:01.697Z,98426.59
2022-10-17T03:09:28.996Z,98421.59
2022-10-17T03:11:55.980Z,98429.34
2022-10-17T03:14:23.102Z,98429.19
2022-10-17T03:16:49.942Z,98436.94
2022-10-17T03:19:18.386Z,98432.56
2022-10-17T03:21:45.351Z,98426.53
2022-10-17T03:24:12.689Z,98440.34
2022-10-17T03:26:39.571Z,98439.41
2022-10-17T03:29:07.782Z,98441.47
2022-10-17T03:31:36.618Z,98435.72
2022-10-17T03:34:05.770Z,98428.09
2022-10-17T03:36:32.657Z,98409.34
2022-10-17T03:39:01.104Z,98415.13
2022-10-17T03:41:28.581Z,98427.78
2022-10-17T03:43:55.417Z,98427.69
2022-10-17T03:46:24.073Z,98411.41
2022-10-17T03:48:51.309Z,98419.66
2022-10-17T03:51:18.342Z,98435.94
2022-10-17T03:53:50.953Z,98432.34
2022-10-17T03:56:23.964Z,98438.63
2022-10-17T03:58:57.371Z,98436.94
2022-10-17T04:01:25.290Z,98440.69
2022-10-17T04:03:55.661Z,98438.25
2022-10-17T04:06:22.818Z,98446.00
2022-10-17T04:08:50.398Z,98435.50
2022-10-17T04:11:25.187Z,98451.56
2022-10-17T04:13:56.365Z,98449.91
2022-10-17T04:16:27.243Z,98451.44
2022-10-17T04:19:00.516Z,98445.41
2022-10-17T04:21:31.224Z,98446.56
2022-10-17T04:24:03.163Z,98446.44
2022-10-17T04:26:43.865Z,98447.97
2022-10-17T04:29:12.004Z,98446.06
2022-10-17T04:31:41.138Z,98451.06
2022-10-17T04:38:15.862Z,98472.47
2022-10-17T04:40:45.424Z,98469.94
2022-10-17T04:43:12.370Z,98470.63
2022-10-17T04:45:39.265Z,98474.81
2022-10-17T04:48:06.421Z,98483.59
2022-10-17T04:50:36.697Z,98466.69
2022-10-17T04:53:28.367Z,98482.75
2022-10-17T04:55:55.456Z,98487.06
2022-10-17T04:58:22.656Z,98486.31
2022-10-17T05:00:51.476Z,98483.63
2022-10-17T05:03:25.381Z,98509.50
2022-10-17T05:05:52.327Z,98496.78
2022-10-17T05:08:19.243Z,98502.69
2022-10-17T05:10:46.447Z,98496.56
2022-10-17T05:13:13.938Z,98523.28
2022-10-17T05:15:41.312Z,98518.19
2022-10-17T05:18:09.678Z,98520.47
2022-10-17T05:20:37.416Z,98529.59
2022-10-17T05:23:06.759Z,98521.66
2022-10-17T05:25:39.261Z,98524.72
2022-10-17T05:28:06.425Z,98534.06
2022-10-17T05:30:36.875Z,98542.53
2022-10-17T05:33:07.472Z,98544.28
2022-10-17T05:35:34.475Z,98536.41
2022-10-17T05:38:02.488Z,98542.25
2022-10-17T05:40:32.114Z,98546.34
2022-10-17T05:42:59.278Z,98549.38
2022-10-17T05:45:26.537Z,98543.47
2022-10-17T05:47:53.557Z,98553.41
2022-10-17T05:50:24.037Z,98554.16
2022-10-17T05:53:03.251Z,98566.75
2022-10-17T05:55:32.533Z,98563.59
2022-10-17T05:58:03.262Z,98583.72
2022-10-17T06:00:35.737Z,98576.66
2022-10-17T06:03:03.439Z,98577.75
2022-10-17T06:05:30.982Z,98591.50
2022-10-17T06:08:01.119Z,98596.44
2022-10-17T06:10:35.174Z,98588.09
2022-10-17T06:13:02.285Z,98587.56
2022-10-17T06:15:29.289Z,98586.19
2022-10-17T06:18:01.724Z,98585.09
2022-10-17T06:20:28.862Z,98588.22
2022-10-17T06:22:55.727Z,98591.41
2022-10-17T06:25:36.591Z,98590.94
2022-10-17T06:28:04.986Z,98597.91
2022-10-17T06:30:32.426Z,98597.16
2022-10-17T06:33:00.030Z,98606.09
2022-10-17T06:35:27.652Z,98601.81
2022-10-17T06:37:54.580Z,98599.69
2022-10-17T06:40:22.618Z,98594.72
2022-10-17T06:42:49.991Z,98588.56
2022-10-17T06:45:44.820Z,98588.56
2022-10-17T06:48:26.534Z,98600.34
2022-10-17T06:51:12.408Z,98603.25
2022-10-17T06:53:47.911Z,98592.06
2022-10-17T06:56:45.650Z,98599.75
2022-10-17T06:59:35.614Z,98594.63
2022-10-17T07:02:11.876Z,98604.41
2022-10-17T07:04:40.002Z,98602.00
2022-10-17T07:07:07.902Z,98601.22
2022-10-17T07:09:35.290Z,98607.09
2022-10-17T07:12:02.732Z,98599.34
2022-10-17T07:14:32.251Z,98609.09
2022-10-17T07:17:01.274Z,98610.84
2022-10-17T07:19:31.661Z,98614.63
2022-10-17T07:21:58.547Z,98607.75
2022-10-17T07:24:26.044Z,98618.34
2022-10-17T07:27:04.397Z,98619.84
2022-10-17T07:29:31.355Z,98609.50
2022-10-17T07:32:09.893Z,98624.28
2022-10-17T07:34:38.739Z,98628.91
2022-10-17T07:37:09.946Z,98627.97
2022-10-17T07:39:40.093Z,98630.44
2022-10-17T07:42:07.818Z,98624.81
2022-10-17T07:44:35.840Z,98628.56
2022-10-17T07:47:03.015Z,98629.81
2022-10-17T07:49:30.203Z,98619.75
2022-10-17T07:51:57.263Z,98624.34
2022-10-17T07:54:27.122Z,98634.72
2022-10-17T07:56:54.000Z,98628.72
2022-10-17T07:59:21.049Z,98595.38
2022-10-17T08:01:48.907Z,98615.13
2022-10-17T08:04:18.579Z,98614.19
2022-10-17T08:06:48.959Z,98612.75
2022-10-17T08:09:15.942Z,98589.47
2022-10-17T08:11:46.122Z,98620.16
2022-10-17T08:14:14.177Z,98612.47
2022-10-17T08:16:41.194Z,98615.09
2022-10-17T08:19:11.575Z,98616.13
2022-10-17T08:21:43.679Z,98614.78
2022-10-17T08:24:10.910Z,98608.00
2022-10-17T08:26:42.329Z,98612.41
2022-10-17T08:29:15.229Z,98611.56
2022-10-17T08:31:45.287Z,98610.38
2022-10-17T08:34:16.214Z,98599.22
2022-10-17T08:36:43.129Z,98590.22
2022-10-17T08:39:10.267Z,98607.84
2022-10-17T08:42:06.228Z,98615.69
2022-10-17T08:44:57.738Z,98613.94
2022-10-17T08:47:36.060Z,98609.25
2022-10-17T08:50:06.920Z,98596.06
2022-10-17T08:52:47.123Z,98612.69
2022-10-17T08:57:55.684Z,98579.59
2022-10-17T09:00:24.474Z,98614.88
2022-10-17T09:03:19.686Z,98619.75
2022-10-17T09:05:54.568Z,98606.25
2022-10-17T09:08:48.031Z,98613.81
2022-10-17T09:11:44.550Z,98613.16
2022-10-17T09:14:30.255Z,98607.22
2022-10-17T09:17:21.775Z,98606.53
2022-10-17T09:19:59.505Z,98600.81
2022-10-17T09:22:31.469Z,98598.19
2022-10-17T09:25:06.832Z,98564.53
2022-10-17T09:27:48.383Z,98599.91
2022-10-17T09:30:44.171Z,98596.28
2022-10-17T09:33:35.632Z,98593.81
2022-10-17T09:36:31.766Z,98599.31
2022-10-17T09:39:02.654Z,98591.47
2022-10-17T09:41:50.497Z,98590.00
2022-10-17T09:44:25.556Z,98585.84
2022-10-17T09:47:29.879Z,98583.84
2022-10-17T09:49:57.121Z,98569.63
2022-10-17T09:52:50.865Z,98584.72
2022-10-17T09:55:26.353Z,98543.56
2022-10-17T09:57:57.374Z,98574.41
2022-10-17T10:00:30.959Z,98547.75
2022-10-17T10:03:33.149Z,98579.72
2022-10-17T10:06:23.398Z,98578.59
2022-10-17T10:09:05.051Z,98568.47
2022-10-17T10:11:54.233Z,98571.19
2022-10-17T10:14:36.087Z,98566.00
2022-10-17T10:17:05.565Z,98564.88
2022-10-17T10:19:37.891Z,98554.97
2022-10-17T10:22:31.566Z,98559.22
2022-10-17T10:25:11.461Z,98561.84
2022-10-17T10:27:40.964Z,98558.28
2022-10-17T10:30:26.205Z,98549.44
2022-10-17T10:35:38.188Z,98543.53
2022-10-17T10:38:16.609Z,98547.13
2022-10-17T10:40:51.800Z,98537.56
2022-10-17T10:43:44.296Z,98529.59
2022-10-17T10:46:37.527Z,98540.31
2022-10-17T10:49:31.574Z,98535.56
2022-10-17T10:52:03.864Z,98527.44
2022-10-17T10:54:43.056Z,98531.69
2022-10-17T10:57:20.074Z,98526.81
2022-10-17T11:00:15.540Z,98521.09
2022-10-17T11:02:54.601Z,98516.78
2022-10-17T11:05:26.565Z,98516.88
2022-10-17T11:08:06.561Z,98510.88
2022-10-17T11:10:38.287Z,98520.75
2022-10-17T11:13:20.436Z,98516.19
2022-10-17T11:16:09.463Z,98507.81
2022-10-17T11:18:45.741Z,98511.25
2022-10-17T11:21:17.197Z,98504.84
2022-10-17T11:23:51.455Z,98485.34
2022-10-17T11:26:27.154Z,98501.69
2022-10-17T11:28:55.339Z,98500.81
2022-10-17T11:31:33.943Z,98495.63
2022-10-17T11:34:20.248Z,98500.81
2022-10-17T11:36:55.415Z,98492.84
2022-10-17T11:39:31.402Z,98488.44
2022-10-17T11:42:06.809Z,98471.75
2022-10-17T11:44:39.271Z,98478.97
2022-10-17T11:47:26.219Z,98473.66
2022-10-17T11:53:14.439Z,98391.22
2022-10-17T11:55:43.454Z,98468.69
2022-10-17T11:58:39.367Z,98470.53
2022-10-17T12:01:06.975Z,98468.72
2022-10-17T12:03:43.197Z,98474.78
2022-10-17T12:06:43.454Z,98460.13
2022-10-17T12:09:32.727Z,98472.19
2022-10-17T12:12:02.415Z,98470.41
2022-10-17T12:14:48.532Z,98470.09
2022-10-17T12:17:38.992Z,98470.63
2022-10-17T12:20:25.683Z,98468.16
2022-10-17T12:23:15.801Z,98465.97
2022-10-17T12:25:54.233Z,98461.31
2022-10-17T12:28:30.587Z,98465.63
2022-10-17T12:31:16.112Z,98461.22
2022-10-17T12:33:46.145Z,98473.41
2022-10-17T12:36:21.193Z,98465.53
2022-10-17T12:38:50.451Z,98449.53
2022-10-17T12:41:40.363Z,98469.94
2022-10-17T12:44:14.275Z,98477.81
2022-10-17T12:46:58.014Z,98468.00
2022-10-17T12:49:53.118Z,98471.03
2022-10-17T12:52:31.708Z,98472.69
2022-10-17T12:55:12.604Z,98467.16
2022-10-17T12:57:44.712Z,98472.44
2022-10-17T13:00:20.099Z,98469.63
2022-10-17T13:02:52.305Z,98437.28
2022-10-17T13:05:32.826Z,98458.91
2022-10-17T13:08:08.849Z,98477.28
2022-10-17T13:10:41.814Z,98460.19
2022-10-17T13:13:21.471Z,98462.28
2022-10-17T13:15:54.097Z,98469.16
2022-10-17T13:18:36.741Z,98459.66
2022-10-17T13:21:16.904Z,98457.97
2022-10-17T13:23:43.911Z,98466.09
2022-10-17T13:26:20.400Z,98475.81
2022-10-17T13:29:11.464Z,98333.81
2022-10-17T13:31:42.694Z,98473.53
2022-10-17T13:34:18.569Z,98466.38
2022-10-17T13:36:52.239Z,98465.44
2022-10-17T13:39:32.613Z,98459.34
2022-10-17T13:42:25.064Z,98471.56
2022-10-17T13:44:52.692Z,98475.66
2022-10-17T13:47:29.021Z,98461.97
2022-10-17T13:49:57.916Z,98470.06
2022-10-17T13:52:30.116Z,98466.38
2022-10-17T13:55:17.573Z,98455.13
2022-10-17T13:57:44.650Z,98455.53
2022-10-17T14:00:23.134Z,98455.66
2022-10-17T14:02:50.197Z,98459.97
2022-10-17T14:05:21.251Z,98464.28
2022-10-17T14:08:12.760Z,98457.09
2022-10-17T14:10:42.483Z,98465.28
2022-10-17T14:13:30.309Z,98442.75
2022-10-17T14:16:01.734Z,98457.47
2022-10-17T14:18:36.166Z,98458.28
2022-10-17T14:21:34.286Z,98459.16
2022-10-17T14:24:11.945Z,98447.13
2022-10-17T14:26:51.597Z,98458.41
2022-10-17T14:29:24.305Z,98459.72
2022-10-17T14:31:58.742Z,98459.56
2022-10-17T14:44:30.946Z,98468.41
2022-10-17T14:47:30.878Z,98471.63
2022-10-17T14:50:22.716Z,98469.91
2022-10-17T14:53:21.854Z,98469.50
2022-10-17T14:55:59.863Z,98463.84
2022-10-17T14:58:30.786Z,98466.81
2022-10-17T15:00:59.359Z,98469.34
2022-10-17T15:03:26.585Z,98479.44
2022-10-17T15:05:54.797Z,98470.63
2022-10-17T15:08:24.567Z,98467.41
2022-10-17T15:10:51.876Z,98478.00
2022-10-17T15:13:28.232Z,98471.34
2022-10-17T15:15:57.182Z,98465.78
2022-10-17T15:18:24.039Z,98463.53
2022-10-17T15:20:59.498Z,98478.34
2022-10-17T15:23:32.164Z,98487.22
2022-10-17T15:25:59.390Z,98477.63
2022-10-17T15:28:27.391Z,98480.03
2022-10-17T15:30:54.435Z,98475.56
2022-10-17T15:33:21.231Z,98488.16
2022-10-17T15:35:48.206Z,98494.75
2022-10-17T15:38:18.293Z,98498.25
2022-10-17T15:40:48.897Z,98484.97
2022-10-17T15:43:19.648Z,98502.44
2022-10-17T15:45:51.351Z,98520.38
2022-10-17T15:48:29.768Z,98510.13
2022-10-17T15:50:58.577Z,98521.53
2022-10-17T15:53:25.499Z,98517.31
2022-10-17T15:55:52.391Z,98526.19
2022-10-17T15:58:19.928Z,98519.41
2022-10-17T16:00:47.578Z,98529.66
2022-10-17T16:03:14.612Z,98534.00
2022-10-17T16:05:41.541Z,98530.16
2022-10-17T16:08:08.386Z,98519.50
2022-10-17T16:10:39.627Z,98545.22
2022-10-17T16:13:06.449Z,98552.94
2022-10-17T16:15:34.041Z,98542.63
2022-10-17T16:18:04.326Z,98537.09
2022-10-17T16:20:34.081Z,98559.88
2022-10-17T16:23:03.150Z,98564.53
2022-10-17T16:25:31.624Z,98562.78
2022-10-17T16:28:00.945Z,98565.44
2022-10-17T16:30:30.518Z,98583.03
2022-10-17T16:32:57.407Z,98574.88
2022-10-17T16:35:28.339Z,98578.44
2022-10-17T16:37:57.916Z,98585.72
2022-10-17T16:40:24.894Z,98581.03
2022-10-17T16:42:52.035Z,98577.19
2022-10-17T16:45:23.328Z,98585.34
2022-10-17T16:47:50.802Z,98592.66
2022-10-17T16:50:18.534Z,98585.72
2022-10-17T16:52:46.240Z,98593.13
2022-10-17T16:55:13.676Z,98598.75
2022-10-17T17:00:14.122Z,98587.06
2022-10-17T17:02:41.116Z,98602.66
2022-10-17T17:05:08.657Z,98595.22
2022-10-17T17:07:36.354Z,98597.09
2022-10-17T17:10:05.245Z,98604.25
2022-10-17T17:12:34.808Z,98613.59
2022-10-17T17:15:03.273Z,98616.75
2022-10-17T17:17:48.424Z,98619.50
2022-10-17T17:20:17.461Z,98617.53
2022-10-17T17:22:44.307Z,98626.75
2022-10-17T17:25:11.122Z,98614.50
2022-10-17T17:27:38.526Z,98618.53
2022-10-17T17:30:07.956Z,98623.41
2022-10-17T17:32:34.887Z,98630.97
2022-10-17T17:35:02.226Z,98639.59
2022-10-17T17:37:30.645Z,98624.25
2022-10-17T17:39:57.710Z,98636.03
2022-10-17T17:42:24.675Z,98628.97
2022-10-17T17:44:52.516Z,98629.00
2022-10-17T17:47:19.726Z,98643.94
2022-10-17T17:49:46.804Z,98632.41
2022-10-17T17:52:13.665Z,98649.63
2022-10-17T17:54:41.064Z,98644.22
2022-10-17T17:57:08.136Z,98639.84
2022-10-17T17:59:35.400Z,98634.00
2022-10-17T18:02:02.973Z,98654.38
2022-10-17T18:04:29.961Z,98651.72
2022-10-17T18:06:56.906Z,98657.56
2022-10-17T18:09:24.585Z,98654.41
2022-10-17T18:11:51.643Z,98650.19
2022-10-17T18:14:23.790Z,98647.19
2022-10-17T18:16:50.736Z,98630.97
2022-10-17T18:19:20.242Z,98645.94
2022-10-17T18:21:47.649Z,98644.91
2022-10-17T18:24:14.729Z,98653.25
2022-10-17T18:26:41.956Z,98653.66
2022-10-17T18:29:09.161Z,98655.06
2022-10-17T18:31:36.338Z,98653.19
2022-10-17T18:34:05.168Z,98646.25
2022-10-17T18:36:34.349Z,98654.97
2022-10-17T18:39:02.115Z,98657.19
2022-10-17T18:41:29.289Z,98650.38
2022-10-17T18:43:57.241Z,98646.41
2022-10-17T18:46:35.719Z,98636.88
2022-10-17T18:49:03.557Z,98640.75
2022-10-17T18:51:30.632Z,98658.13
2022-10-17T18:53:58.781Z,98666.63
2022-10-17T18:56:26.622Z,98649.56
2022-10-17T18:58:55.189Z,98659.63
2022-10-17T19:01:25.910Z,98663.28
2022-10-17T19:03:55.536Z,98663.63
2022-10-17T19:06:26.778Z,98667.28
2022-10-17T19:08:54.690Z,98662.63
2022-10-17T19:11:26.213Z,98660.47
2022-10-17T19:13:54.063Z,98664.00
2022-10-17T19:16:27.258Z,98670.81
2022-10-17T19:18:57.993Z,98662.59
2022-10-17T19:21:25.669Z,98661.63
2022-10-17T19:24:00.706Z,98668.53
2022-10-17T19:26:31.481Z,98668.28
2022-10-17T19:29:00.401Z,98676.13
2022-10-17T19:31:31.608Z,98676.34
2022-10-17T19:34:00.143Z,98678.84
2022-10-17T19:36:32.500Z,98688.31
2022-10-17T19:39:04.193Z,98690.91
2022-10-17T19:41:31.542Z,98676.50
2022-10-17T19:43:59.712Z,98694.25
2022-10-17T19:46:28.082Z,98692.66
2022-10-17T19:48:55.629Z,98703.47
2022-10-17T19:51:24.620Z,98696.19
2022-10-17T19:53:54.787Z,98698.84
2022-10-17T19:56:23.150Z,98702.50
2022-10-17T19:58:51.436Z,98694.50
2022-10-17T20:01:23.065Z,98685.75
2022-10-17T20:03:50.636Z,98695.28
2022-10-17T20:06:19.470Z,98693.38
2022-10-17T20:08:47.232Z,98695.97
2022-10-17T20:11:16.874Z,98686.50
2022-10-17T20:13:44.859Z,98706.97
2022-10-17T20:16:14.822Z,98711.25
2022-10-17T20:18:41.996Z,98707.75
2022-10-17T20:21:12.428Z,98704.91
2022-10-17T20:23:40.640Z,98702.09
2022-10-17T20:26:26.082Z,98709.50
2022-10-17T20:29:02.065Z,98708.84
2022-10-17T20:31:30.157Z,98695.28
2022-10-17T20:33:58.878Z,98694.19
2022-10-17T20:36:25.951Z,98693.53
2022-10-17T20:38:55.517Z,98690.06
2022-10-17T20:41:23.575Z,98691.84
2022-10-17T20:43:55.330Z,98695.03
2022-10-17T20:46:36.269Z,98676.03
2022-10-17T20:49:07.054Z,98691.03
2022-10-17T20:51:35.386Z,98686.88
2022-10-17T20:54:03.096Z,98688.84
2022-10-17T20:56:32.528Z,98689.34
2022-10-17T20:59:02.966Z,98688.44
2022-10-17T21:01:31.681Z,98686.25
2022-10-17T21:04:06.211Z,98674.00
2022-10-17T21:06:43.129Z,98664.81
2022-10-17T21:09:10.027Z,98682.09
2022-10-17T21:11:36.912Z,98683.97
2022-10-17T21:14:05.711Z,98665.88
2022-10-17T21:16:34.717Z,98676.75
2022-10-17T21:19:02.208Z,98680.09
2022-10-17T21:21:34.260Z,98689.72
2022-10-17T21:24:07.205Z,98684.38
2022-10-17T21:26:37.706Z,98686.00
2022-10-17T21:29:06.473Z,98683.50
2022-10-17T21:31:35.390Z,98678.03
2022-10-17T21:34:10.462Z,98678.19
2022-10-17T21:36:37.657Z,98681.47
2022-10-17T21:41:39.286Z,98673.78
2022-10-17T21:44:11.963Z,98657.63
2022-10-17T21:46:38.966Z,98678.00
2022-10-17T21:49:05.920Z,98668.19
2022-10-17T21:51:33.129Z,98663.03
2022-10-17T21:54:00.142Z,98680.34
2022-10-17T21:56:28.710Z,98663.84
2022-10-17T21:58:56.324Z,98668.81
2022-10-17T22:01:31.710Z,98670.47
2022-10-17T22:04:07.880Z,98663.00
2022-10-17T22:06:40.288Z,98669.25
2022-10-17T22:09:17.437Z,98670.00
2022-10-17T22:11:47.275Z,98668.00
2022-10-17T22:14:17.776Z,98665.31
2022-10-17T22:16:46.893Z,98669.41
2022-10-17T22:19:17.786Z,98665.75
2022-10-17T22:21:45.065Z,98661.50
2022-10-17T22:24:14.470Z,98658.91
2022-10-17T22:26:42.642Z,98664.00
2022-10-17T22:29:11.648Z,98666.53
2022-10-17T22:31:39.499Z,98661.19
2022-10-17T22:34:07.217Z,98653.50
2022-10-17T22:36:34.669Z,98656.06
2022-10-17T22:39:01.856Z,98647.63
2022-10-17T22:41:29.036Z,98649.38
2022-10-17T22:43:55.955Z,98628.16
2022-10-17T22:46:22.835Z,98654.63
2022-10-17T22:48:49.784Z,98657.38
2022-10-17T22:51:16.923Z,98638.06
2022-10-17T22:53:43.852Z,98650.31
2022-10-17T22:56:19.197Z,98656.44
2022-10-17T22:58:46.437Z,98649.00
2022-10-17T23:01:16.815Z,98646.31
2022-10-17T23:03:44.203Z,98645.81
2022-10-17T23:06:11.598Z,98642.59
2022-10-17T23:08:39.420Z,98653.16
2022-10-17T23:11:07.396Z,98656.34
2022-10-17T23:13:34.352Z,98657.47
2022-10-17T23:16:01.293Z,98653.50
2022-10-17T23:18:28.310Z,98638.19
2022-10-17T23:20:56.258Z,98647.59
2022-10-17T23:23:23.172Z,98652.72
2022-10-17T23:25:50.523Z,98641.53
2022-10-17T23:28:17.435Z,98661.09
2022-10-17T23:30:44.321Z,98654.16
2022-10-17T23:33:13.313Z,98653.41
2022-10-17T23:35:40.680Z,98645.72
2022-10-17T23:38:07.876Z,98646.66
2022-10-17T23:40:35.454Z,98622.69
2022-10-17T23:43:04.307Z,98640.66
2022-10-17T23:45:36.034Z,98638.91
2022-10-17T23:48:03.258Z,98638.03
2022-10-17T23:50:30.244Z,98622.56
2022-10-17T23:52:57.051Z,98637.09
2022-10-17T23:55:24.073Z,98618.38
2022-10-17T23:57:50.903Z,98639.72
